Aviation Digital Data Service (ADDS)

Output produced by METARs form (0313 UTC 20 July 2018)
found at http://www.aviationweather.gov/adds/metars/
 
KVKS 200255Z AUTO 00000KT 10SM CLR 29/25 A2989 RMK A01
KVKS 200235Z AUTO 17005KT 10SM CLR 30/25 A2988 RMK A01
KVKS 200215Z AUTO 16005KT 10SM CLR 30/25 A2987 RMK A01
KVKS 200155Z AUTO 17004KT 10SM CLR 30/26 A2987 RMK A01
KVKS 200135Z AUTO 00000KT 10SM CLR 30/27 A2987 RMK A01
KVKS 200115Z AUTO 00000KT 10SM CLR 31/26 A2987 RMK A01
KVKS 200055Z AUTO 16003KT 10SM CLR 31/26 A2987 RMK A01
KVKS 200035Z AUTO 00000KT 10SM CLR 32/27 A2986 RMK A01
KVKS 200015Z AUTO 18004KT 10SM CLR 32/26 A2986 RMK A01
KVKS 192355Z AUTO 17004KT 10SM CLR 33/26 A2986 RMK A01
KVKS 192335Z AUTO 16005KT 10SM CLR 34/25 A2986 RMK A01
KVKS 192315Z AUTO 17006KT 10SM CLR 34/25 A2986 RMK A01
KVKS 192255Z AUTO 00000KT 10SM CLR 34/25 A2987 RMK A01
KVKS 192235Z AUTO 00000KT 10SM CLR 34/25 A2987 RMK A01
KVKS 192215Z AUTO 18004KT 10SM CLR 34/25 A2987 RMK A01
KVKS 192155Z AUTO 22005KT 10SM CLR 34/25 A2988 RMK A01
KVKS 192135Z AUTO VRB03KT 10SM CLR 34/25 A2988 RMK A01
KVKS 192115Z AUTO 00000KT 10SM CLR 34/25 A2989 RMK A01
KVKS 192055Z AUTO 00000KT 10SM CLR 33/24 A2990 RMK A01
KVKS 192035Z AUTO 21004KT 10SM CLR 35/25 A2990 RMK A01
KVKS 192015Z AUTO 00000KT 7SM CLR 34/25 A2990 RMK A01
KVKS 191955Z AUTO 27005KT 10SM FEW035 34/25 A2990 RMK A01
KVKS 191935Z AUTO VRB04KT 10SM FEW036 34/25 A2990 RMK A01
KVKS 191915Z AUTO 23004KT 10SM FEW036 34/25 A2991 RMK A01
KVKS 191855Z AUTO 00000KT 10SM CLR 33/25 A2991 RMK A01
KVKS 191835Z AUTO VRB03KT 10SM CLR 33/25 A2991 RMK A01
KVKS 191815Z AUTO 18005KT 10SM CLR 33/25 A2992 RMK A01
KVKS 191755Z AUTO VRB04KT 10SM CLR 33/24 A2992 RMK A01
KVKS 191735Z AUTO VRB05KT 10SM FEW029 FEW035 FEW044 33/25 A2993 RMK A01
KVKS 191715Z AUTO 00000KT 10SM FEW031 FEW043 33/25 A2994 RMK A01
KVKS 191655Z AUTO 31004KT 10SM CLR 32/26 A2994 RMK A01
KVKS 191635Z AUTO 00000KT 10SM CLR 32/26 A2994 RMK A01
KVKS 191615Z AUTO VRB03KT 10SM CLR 32/26 A2995 RMK A01
KVKS 191555Z AUTO VRB03KT 10SM CLR 31/26 A2995 RMK A01
KVKS 191535Z AUTO VRB04KT 10SM CLR 31/26 A2995 RMK A01
KVKS 191515Z AUTO 23004KT 10SM FEW075 30/26 A2996 RMK A01
KVKS 191455Z AUTO 00000KT 10SM CLR 30/26 A2996 RMK A01
KVKS 191435Z AUTO 00000KT 10SM CLR 29/26 A2997 RMK A01
KVKS 191415Z AUTO 00000KT 10SM CLR 28/26 A2997 RMK A01
KVKS 191355Z AUTO 17004KT 10SM FEW110 28/26 A2997 RMK A01
KVKS 191335Z AUTO 18005KT 10SM FEW110 27/26 A2997 RMK A01
KVKS 191315Z AUTO 16003KT 10SM FEW110 27/26 A2996 RMK A01
KVKS 191255Z AUTO 00000KT 10SM CLR 26/26 A2996 RMK A01
KVKS 191235Z AUTO 00000KT 10SM FEW110 26/25 A2996 RMK A01
KVKS 191215Z AUTO 00000KT 10SM FEW110 25/25 A2996 RMK A01
KVKS 191155Z AUTO 00000KT 10SM FEW110 24/24 A2995 RMK A01
KVKS 191135Z AUTO 00000KT 10SM SCT120 24/24 A2995 RMK A01
KVKS 191115Z AUTO 00000KT 10SM SCT120 24/24 A2994 RMK A01
KVKS 191055Z AUTO 00000KT 10SM CLR 24/24 A2994 RMK A01
KVKS 191035Z AUTO 12003KT 10SM CLR 24/24 A2993 RMK A01
KVKS 191015Z AUTO 00000KT 10SM CLR 24/24 A2993 RMK A01
KVKS 190955Z AUTO 00000KT 10SM CLR 24/24 A2993 RMK A01
KVKS 190935Z AUTO 00000KT 10SM CLR 24/24 A2993 RMK A01
KVKS 190915Z AUTO 00000KT 10SM CLR 24/24 A2993 RMK A01
KVKS 190855Z AUTO 00000KT 10SM SCT120 24/24 A2992 RMK A01
KVKS 190835Z AUTO 00000KT 10SM BKN120 25/25 A2991 RMK A01
KVKS 190815Z AUTO 00000KT 10SM FEW039 SCT120 25/25 A2991 RMK A01
KVKS 190755Z AUTO 00000KT 10SM FEW033 SCT040 BKN120 25/25 A2991 RMK A01
KVKS 190735Z AUTO 00000KT 10SM FEW033 SCT040 25/24 A2990 RMK A01
KVKS 190715Z AUTO 00000KT 10SM CLR 24/24 A2990 RMK A01
KVKS 190655Z AUTO 00000KT 10SM FEW035 FEW050 SCT120 24/24 A2990 RMK A01
KVKS 190635Z AUTO 00000KT 10SM SCT033 BKN120 25/25 A2990 RMK A01
KVKS 190615Z AUTO 00000KT 10SM FEW020 SCT030 BKN036 25/24 A2991 RMK A01
KVKS 190555Z AUTO 00000KT 10SM BKN018 BKN032 OVC110 24/24 A2991 RMK A01
KVKS 190535Z AUTO 00000KT 10SM BKN016 BKN021 OVC095 24/24 A2992 RMK A01
KVKS 190515Z AUTO 00000KT 10SM OVC017 24/24 A2992 RMK A01
KVKS 190455Z AUTO 00000KT 10SM OVC017 24/24 A2993 RMK A01
KVKS 190435Z AUTO 00000KT 10SM BKN020 BKN025 BKN034 25/24 A2993 RMK A01
KVKS 190415Z AUTO 00000KT 10SM FEW035 25/24 A2993 RMK A01
KVKS 190355Z AUTO 19003KT 10SM FEW070 FEW080 25/24 A2994 RMK A01
KVKS 190335Z AUTO 00000KT 10SM FEW065 SCT075 BKN110 25/24 A2994 RMK A01
KVKS 190315Z AUTO 00000KT 10SM CLR 25/24 A2995 RMK A01
KVKS 190255Z AUTO 00000KT 10SM CLR 25/24 A2995 RMK A01
KVKS 190235Z AUTO 19003KT 10SM CLR 25/24 A2994 RMK A01
KVKS 190215Z AUTO 00000KT 10SM CLR 25/24 A2994 RMK A01
KVKS 190155Z AUTO 00000KT 10SM CLR 25/24 A2994 RMK A01
KVKS 190135Z AUTO 00000KT 10SM CLR 25/24 A2994 RMK A01
KVKS 190115Z AUTO 00000KT 10SM CLR 25/24 A2994 RMK A01
KVKS 190055Z AUTO 00000KT 10SM FEW085 26/24 A2995 RMK A01
KVKS 190035Z AUTO 00000KT 10SM CLR 26/24 A2994 RMK A01
KVKS 190015Z AUTO 00000KT 10SM CLR 26/24 A2993 RMK A01
KVKS 182355Z AUTO 00000KT 10SM CLR 26/24 A2993 RMK A01
KVKS 182335Z AUTO 00000KT 10SM CLR 26/24 A2993 RMK A01
KVKS 182315Z AUTO 29004KT 10SM CLR 26/24 A2993 RMK A01
KVKS 182255Z AUTO 36004KT 10SM CLR 26/24 A2994 RMK A01
KVKS 182235Z AUTO 34003KT 10SM CLR 26/24 A2994 RMK A01
KVKS 182215Z AUTO 00000KT 10SM CLR 26/23 A2994 RMK A01
KVKS 182155Z AUTO 34006KT 10SM CLR 27/23 A2993 RMK A01
KVKS 182135Z AUTO 34007G14KT 10SM FEW036 27/23 A2993 RMK A01
KVKS 182115Z AUTO 34010G17KT 10SM SCT036 SCT110 28/24 A2995 RMK A01
KVKS 182055Z AUTO 34006KT 10SM FEW110 28/25 A2995 RMK A01
KVKS 182035Z AUTO 36004KT 10SM CLR 27/25 A2995 RMK A01
KVKS 182015Z AUTO 00000KT 9SM CLR 27/23 A2994 RMK A01
KVKS 181955Z AUTO VRB04KT 10SM CLR 27/23 A2995 RMK A01
KVKS 181935Z AUTO 32008KT 9SM FEW029 FEW035 SCT040 27/24 A2996 RMK A01
KVKS 181915Z AUTO 32010G17KT 4SM HZ SCT033 BKN040 29/24 A2996 RMK A01
KVKS 181855Z AUTO VRB05KT 9SM FEW046 FEW055 FEW070 32/26 A2995 RMK A01
KVKS 181835Z AUTO 29005KT 9SM FEW038 BKN046 BKN055 32/25 A2996 RMK A01
KVKS 181815Z AUTO 27004KT 9SM SCT041 SCT050 32/26 A2997 RMK A01
KVKS 181755Z AUTO 28007KT 9SM CLR 32/26 A2997 RMK A01
KVKS 181735Z AUTO 25006KT 9SM CLR 32/26 A2998 RMK A01
KVKS 181715Z AUTO 24007KT 210V280 9SM FEW023 32/26 A2998 RMK A01
KVKS 181655Z AUTO VRB04KT 8SM FEW022 31/26 A2998 RMK A01
KVKS 181635Z AUTO VRB04KT 9SM FEW020 31/26 A2998 RMK A01
KVKS 181615Z AUTO 21004KT 9SM FEW018 30/25 A2999 RMK A01
KVKS 181555Z AUTO 21007KT 180V240 9SM SCT016 30/26 A2999 RMK A01
KVKS 181535Z AUTO VRB03KT 9SM FEW016 30/26 A3000 RMK A01
KVKS 181515Z AUTO VRB04KT 9SM CLR 30/26 A3000 RMK A01
KVKS 181455Z AUTO VRB05KT 8SM CLR 29/26 A3000 RMK A01
KVKS 181435Z AUTO 22006KT 9SM CLR 29/26 A3000 RMK A01
KVKS 181415Z AUTO 22004KT 8SM CLR 28/26 A3000 RMK A01
KVKS 181355Z AUTO 00000KT 8SM CLR 27/26 A3000 RMK A01
KVKS 181335Z AUTO 00000KT 8SM CLR 27/26 A3000 RMK A01
KVKS 181315Z AUTO 21004KT 8SM CLR 26/26 A3000 RMK A01
KVKS 181255Z AUTO 00000KT 8SM CLR 26/26 A3000 RMK A01
KVKS 181235Z AUTO 00000KT 8SM FEW070 FEW080 26/26 A3000 RMK A01
KVKS 181215Z AUTO 00000KT 8SM BKN070 BKN080 26/26 A3000 RMK A01
KVKS 181155Z AUTO 00000KT 8SM BKN070 BKN080 25/25 A3000 RMK A01
KVKS 181135Z AUTO 00000KT 8SM BKN070 25/25 A3000 RMK A01
KVKS 181115Z AUTO 00000KT 8SM OVC065 25/25 A2999 RMK A01
KVKS 181055Z AUTO 00000KT 9SM SCT070 25/25 A2999 RMK A01
KVKS 181035Z AUTO 00000KT 9SM SCT065 25/25 A2999 RMK A01
KVKS 181015Z AUTO 00000KT 9SM BKN060 25/25 A2999 RMK A01
KVKS 180955Z AUTO 00000KT 9SM OVC060 25/25 A2998 RMK A01
KVKS 180935Z AUTO 00000KT 8SM OVC060 25/25 A2998 RMK A01
KVKS 180915Z AUTO 17003KT 8SM SCT055 25/25 A2998 RMK A01
KVKS 180855Z AUTO 00000KT 8SM CLR 25/25 A2998 RMK A01
KVKS 180835Z AUTO 00000KT 7SM CLR 25/25 A2997 RMK A01
KVKS 180815Z AUTO 00000KT 6SM BR CLR 25/25 A2997 RMK A01
KVKS 180755Z AUTO 00000KT 6SM BR CLR 25/25 A2996 RMK A01
KVKS 180735Z AUTO 00000KT 7SM CLR 25/25 A2996 RMK A01
KVKS 180715Z AUTO 00000KT 7SM CLR 25/25 A2997 RMK A01
KVKS 180655Z AUTO 00000KT 7SM BKN050 BKN065 25/25 A2997 RMK A01
KVKS 180635Z AUTO 16003KT 7SM BKN055 25/25 A2998 RMK A01
KVKS 180615Z AUTO 00000KT 7SM OVC055 26/26 A2999 RMK A01
KVKS 180555Z AUTO 00000KT 8SM SCT055 26/26 A2999 RMK A01
KVKS 180535Z AUTO 00000KT 9SM FEW070 26/26 A2999 RMK A01
KVKS 180515Z AUTO 00000KT 8SM SCT070 SCT080 26/26 A2999 RMK A01
KVKS 180455Z AUTO 00000KT 9SM FEW080 FEW095 26/26 A3000 RMK A01
KVKS 180435Z AUTO 00000KT 9SM FEW095 26/26 A3000 RMK A01
KVKS 180415Z AUTO 17003KT 8SM CLR 26/26 A3001 RMK A01
KVKS 180355Z AUTO 13004KT 9SM CLR 26/26 A3001 RMK A01
KVKS 180335Z AUTO 00000KT 9SM CLR 26/26 A3001 RMK A01
KVKS 180315Z AUTO 00000KT 8SM CLR 26/26 A3000 RMK A01
KVKS 180255Z AUTO 00000KT 10SM CLR 26/26 A3001 RMK A01
KVKS 180235Z AUTO 00000KT 10SM CLR 26/26 A3000 RMK A01
KVKS 180215Z AUTO 00000KT 10SM CLR 26/26 A3000 RMK A01
KVKS 180155Z AUTO 00000KT 10SM CLR 27/26 A3000 RMK A01
KVKS 180135Z AUTO 16003KT 10SM FEW095 SCT120 27/26 A3000 RMK A01
KVKS 180115Z AUTO 15003KT 9SM BKN100 27/26 A3000 RMK A01
KVKS 180055Z AUTO 00000KT 9SM SCT110 27/26 A3000 RMK A01
KVKS 180035Z AUTO 00000KT 9SM FEW014 27/26 A3000 RMK A01
KVKS 180015Z AUTO 00000KT 10SM SCT014 28/25 A2999 RMK A01
KVKS 172355Z AUTO 00000KT 10SM FEW014 28/25 A2998 RMK A01
KVKS 172335Z AUTO 00000KT 10SM CLR 28/25 A2998 RMK A01
KVKS 172315Z AUTO 00000KT 10SM CLR 28/25 A2998 RMK A01
KVKS 172255Z AUTO 23004KT 10SM CLR 28/25 A2998 RMK A01
KVKS 172235Z AUTO 00000KT 10SM CLR 29/25 A2999 RMK A01
KVKS 172215Z AUTO VRB03KT 10SM CLR 29/25 A3000 RMK A01
KVKS 172155Z AUTO 28003KT 10SM CLR 29/25 A2999 RMK A01
KVKS 172135Z AUTO 26005KT 10SM CLR 29/25 A2999 RMK A01
KVKS 172115Z AUTO 23005KT 10SM FEW013 29/25 A2999 RMK A01
KVKS 172055Z AUTO 25008KT 10SM SCT013 29/25 A3000 RMK A01
KVKS 172035Z AUTO VRB06KT 10SM FEW012 SCT065 28/26 A3001 RMK A01
KVKS 172015Z AUTO 22005KT 10SM FEW045 SCT065 28/26 A3002 RMK A01
KVKS 171955Z AUTO 18006KT 9SM FEW037 FEW045 BKN060 26/26 A3003 RMK A01
KVKS 171935Z AUTO 17005KT 6SM BR FEW040 BKN060 BKN070 25/25 A3004 RMK A01
KVKS 171915Z AUTO 21004KT 2 1/2SM BR FEW060 FEW070 25/25 A3006 RMK A01
KVKS 171855Z AUTO 16004KT 2SM BR CLR 25/25 A3006 RMK A01
KVKS 171835Z AUTO 18005KT 1 3/4SM BR FEW028 SCT037 BKN060 25/25 A3006 RMK A01
KVKS 171815Z AUTO 16005KT 1 3/4SM BR SCT033 SCT047 BKN060 25/25 A3007 RMK A01
KVKS 171755Z AUTO 16004KT 9SM FEW048 SCT070 BKN085 25/25 A3007 RMK A01
KVKS 171735Z AUTO 00000KT 3SM BR FEW049 FEW060 25/25 A3008 RMK A01
KVKS 171715Z AUTO 23004KT 6SM BR FEW040 SCT060 BKN065 25/25 A3008 RMK A01
KVKS 171655Z AUTO 21006KT 3SM BR FEW003 SCT047 BKN060 25/25 A3008 RMK A01
KVKS 171635Z AUTO 20010KT 1/2SM FG BKN003 BKN027 BKN037 25/25 A3008 RMK A01
KVKS 171615Z AUTO VRB03KT 3SM BR CLR 25/25 A3008 RMK A01
KVKS 171555Z AUTO 25005G11KT 3SM BR FEW034 25/25 A3008 RMK A01
KVKS 171535Z AUTO 22005KT 3SM BR CLR 26/26 A3008 RMK A01
KVKS 171515Z AUTO 00000KT 2 1/2SM BR FEW055 26/26 A3007 RMK A01
KVKS 171455Z AUTO 00000KT 3SM BR FEW008 FEW013 BKN055 26/26 A3007 RMK A01
KVKS 171435Z AUTO 00000KT 3SM BR FEW008 SCT013 BKN018 26/26 A3007 RMK A01
KVKS 171415Z AUTO 22003KT 4SM BR FEW008 SCT014 26/26 A3007 RMK A01
KVKS 171355Z AUTO 00000KT 4SM BR FEW017 FEW075 26/25 A3007 RMK A01
KVKS 171335Z AUTO 00000KT 7SM SCT017 SCT100 26/25 A3006 RMK A01
KVKS 171315Z AUTO 00000KT 10SM FEW015 FEW065 BKN095 25/25 A3005 RMK A01
KVKS 171255Z AUTO 00000KT 10SM FEW014 FEW021 BKN090 25/25 A3005 RMK A01
KVKS 171235Z AUTO 00000KT 10SM FEW070 BKN090 25/25 A3004 RMK A01
KVKS 171215Z AUTO 00000KT 10SM FEW075 BKN095 24/24 A3004 RMK A01
KVKS 171155Z AUTO 16004KT 9SM BKN100 24/24 A3003 RMK A01
KVKS 171135Z AUTO 16005KT 9SM SCT110 24/24 A3003 RMK A01
KVKS 171115Z AUTO 15003KT 9SM FEW120 24/24 A3002 RMK A01
KVKS 171055Z AUTO 00000KT 10SM CLR 25/25 A3002 RMK A01
KVKS 171035Z AUTO 00000KT 10SM SCT100 25/25 A3001 RMK A01
KVKS 171015Z AUTO 00000KT 10SM SCT075 BKN100 25/25 A3001 RMK A01
KVKS 170955Z AUTO 00000KT 10SM SCT075 BKN095 25/25 A3000 RMK A01
KVKS 170935Z AUTO 00000KT 10SM CLR 25/25 A3000 RMK A01
KVKS 170915Z AUTO 00000KT 10SM FEW100 25/25 A3000 RMK A01
KVKS 170855Z AUTO 00000KT 10SM BKN095 25/25 A3000 RMK A01
KVKS 170835Z AUTO 00000KT 10SM FEW060 BKN095 24/24 A3000 RMK A01
KVKS 170815Z AUTO 00000KT 10SM FEW037 SCT065 BKN095 24/24 A2999 RMK A01
KVKS 170755Z AUTO 00000KT 10SM SCT036 SCT042 BKN065 24/24 A2999 RMK A01
KVKS 170735Z AUTO 00000KT 10SM FEW028 BKN035 BKN046 24/24 A2999 RMK A01
KVKS 170715Z AUTO 00000KT 10SM SCT035 BKN043 BKN065 25/24 A2999 RMK A01
KVKS 170655Z AUTO 00000KT 10SM FEW039 FEW047 BKN060 24/24 A2999 RMK A01
KVKS 170635Z AUTO 00000KT 10SM FEW042 SCT060 24/24 A2999 RMK A01
KVKS 170615Z AUTO 17005KT 10SM SCT042 BKN049 24/24 A2999 RMK A01
KVKS 170555Z AUTO 18004KT 10SM BKN042 OVC049 24/24 A2999 RMK A01
KVKS 170535Z AUTO 17004KT 10SM BKN038 OVC045 24/24 A3000 RMK A01
KVKS 170515Z AUTO 19005KT 10SM BKN038 24/24 A3001 RMK A01
KVKS 170455Z AUTO 00000KT 10SM FEW047 SCT060 SCT070 24/24 A3002 RMK A01
KVKS 170435Z AUTO 00000KT 10SM SCT050 BKN070 BKN080 24/24 A3003 RMK A01
KVKS 170415Z AUTO 20004KT 10SM FEW032 SCT050 BKN070 24/24 A3003 RMK A01
KVKS 170355Z AUTO 15004KT 10SM FEW028 BKN050 BKN070 24/24 A3003 RMK A01
KVKS 170335Z AUTO 00000KT 5SM BR SCT028 BKN050 OVC085 24/24 A3005 RMK A01
KVKS 170315Z AUTO 29004KT 9SM FEW012 SCT029 BKN044 24/24 A3006 RMK A01